Time;durP1;ratioP1;P1;durP2;ratioP2;P2;SDS_P1;SDS_P2;PMS_P1;PMS_P2;Temp;Humidity;BMP_temperature;BMP_pressure;BME280_temperature;BME280_humidity;BME280_pressure;Samples;Min_cycle;Max_cycle;Signal;HPM_P1;HPM_P2
2021/09/10 00:02:04;;;;;;;10.43;3.90;;;461.40;1971.20;;;;;;4907266;29;20455;-82
2021/09/10 00:04:29;;;;;;;11.10;4.72;;;461.30;1971.20;;;;;;4906217;29;20032;-80
2021/09/10 00:06:55;;;;;;;9.98;3.80;;;461.30;2022.40;;;;;;4907773;29;20375;-83
2021/09/10 00:09:21;;;;;;;9.95;4.72;;;461.20;1996.80;;;;;;4906866;29;20043;-81
2021/09/10 00:11:47;;;;;;;11.75;4.82;;;461.20;1996.80;;;;;;4904500;29;20047;-83
2021/09/10 00:14:13;;;;;;;6.75;4.20;;;461.20;2022.40;;;;;;4908125;29;20028;-82
2021/09/10 00:16:38;;;;;;;9.57;4.65;;;461.30;1996.80;;;;;;4905273;29;20475;-78
2021/09/10 00:19:04;;;;;;;8.15;4.20;;;461.30;1996.80;;;;;;4908101;29;20099;-82
2021/09/10 00:21:30;;;;;;;8.35;3.85;;;461.40;1996.80;;;;;;4907818;29;20016;-83
2021/09/10 00:23:56;;;;;;;12.23;4.13;;;461.20;1996.80;;;;;;4889750;29;20755;-82
2021/09/10 00:26:22;;;;;;;10.38;4.22;;;461.20;1996.80;;;;;;4906552;29;20031;-82
2021/09/10 00:28:48;;;;;;;11.02;3.97;;;461.30;1996.80;;;;;;4905246;29;20095;-83
2021/09/10 00:31:13;;;;;;;7.45;4.25;;;461.40;1996.80;;;;;;4907367;29;20734;-83
2021/09/10 00:33:39;;;;;;;10.07;4.03;;;461.10;1996.80;;;;;;4905981;29;20024;-80
2021/09/10 00:36:05;;;;;;;7.28;4.32;;;461.00;2022.40;;;;;;4906661;29;20024;-80
2021/09/10 00:38:31;;;;;;;10.07;3.80;;;461.00;2022.40;;;;;;4890967;29;20025;-83
2021/09/10 00:40:58;;;;;;;8.73;4.50;;;460.90;2048.00;;;;;;4907224;29;20493;-83
2021/09/10 00:43:24;;;;;;;12.48;4.80;;;460.80;2048.00;;;;;;4890035;29;20144;-84
2021/09/10 00:45:49;;;;;;;9.05;5.18;;;460.80;2048.00;;;;;;4905681;29;20036;-80
2021/09/10 00:48:20;;;;;;;7.43;4.00;;;436.10;2022.40;;;;;;4907281;29;20079;-81
2021/09/10 00:50:47;;;;;;;10.93;4.40;;;436.00;2048.00;;;;;;4890197;29;20031;-83
2021/09/10 00:53:13;;;;;;;8.23;3.88;;;435.90;2048.00;;;;;;4907526;29;20536;-82
2021/09/10 00:55:41;;;;;;;8.63;4.22;;;435.90;2073.60;;;;;;4908935;29;20021;-82
2021/09/10 00:58:07;;;;;;;6.03;3.83;;;435.90;2022.40;;;;;;4910006;29;20045;-79
2021/09/10 01:00:33;;;;;;;9.55;4.45;;;435.90;2048.00;;;;;;4908772;29;20024;-78
2021/09/10 01:02:59;;;;;;;8.18;4.45;;;436.00;2022.40;;;;;;4910761;29;20486;-79
2021/09/10 01:05:24;;;;;;;11.90;5.63;;;435.90;2022.40;;;;;;4891727;29;20037;-78
2021/09/10 01:07:51;;;;;;;16.05;5.95;;;435.90;2022.40;;;;;;4895111;29;20025;-76
2021/09/10 01:10:18;;;;;;;11.38;5.65;;;436.00;2022.40;;;;;;4894376;29;20024;-83
2021/09/10 01:12:46;;;;;;;11.75;5.65;;;435.90;2022.40;;;;;;4909801;29;20115;-82
2021/09/10 01:15:12;;;;;;;10.10;5.38;;;436.00;2022.40;;;;;;4908748;29;20025;-81
2021/09/10 01:17:38;;;;;;;10.43;5.28;;;435.90;2022.40;;;;;;4910702;29;20096;-77
2021/09/10 01:20:06;;;;;;;9.15;5.45;;;435.90;2048.00;;;;;;4910047;29;20032;-83
2021/09/10 01:22:33;;;;;;;15.18;5.72;;;435.90;2022.40;;;;;;4924298;29;20040;-81
2021/09/10 01:25:11;;;;;;;17.45;6.95;;;435.80;2048.00;;;;;;4935710;29;20038;-76
2021/09/10 01:27:46;;;;;;;12.65;6.35;;;435.80;2022.40;;;;;;4908928;29;20017;-83
2021/09/10 01:30:15;;;;;;;15.05;6.40;;;435.70;2048.00;;;;;;4908709;29;20115;-79
2021/09/10 01:32:41;;;;;;;16.58;6.93;;;435.70;2022.40;;;;;;4911354;29;20028;-76
2021/09/10 01:35:08;;;;;;;13.90;6.97;;;435.70;2022.40;;;;;;4908610;29;20028;-78
2021/09/10 01:37:34;;;;;;;14.95;6.28;;;435.80;1996.80;;;;;;4910943;29;20096;-80
2021/09/10 01:40:00;;;;;;;17.75;8.02;;;435.80;1996.80;;;;;;4891940;29;20471;-79
2021/09/10 01:42:26;;;;;;;20.52;7.03;;;435.90;1996.80;;;;;;4906955;29;20248;-80
2021/09/10 01:44:52;;;;;;;19.10;7.40;;;435.80;1996.80;;;;;;4910073;29;20497;-82
2021/09/10 01:47:18;;;;;;;14.48;6.63;;;435.70;2022.40;;;;;;4909082;29;20028;-77
2021/09/10 01:49:44;;;;;;;18.33;6.65;;;435.50;2048.00;;;;;;4907458;29;20107;-81
2021/09/10 01:52:10;;;;;;;15.20;7.30;;;435.30;2073.60;;;;;;4909946;29;20490;-81
2021/09/10 01:54:36;;;;;;;13.32;6.80;;;410.50;2073.60;;;;;;4910286;29;20028;-76
2021/09/10 01:57:02;;;;;;;17.92;8.13;;;410.30;2099.20;;;;;;4910394;29;20028;-82
2021/09/10 01:59:28;;;;;;;13.68;7.00;;;410.30;2099.20;;;;;;4910287;29;20028;-83
2021/09/10 02:01:54;;;;;;;13.20;6.70;;;410.10;2150.40;;;;;;4910276;29;20382;-76
2021/09/10 02:04:21;;;;;;;21.58;7.53;;;410.20;2124.80;;;;;;4908678;29;20171;-84
2021/09/10 02:06:47;;;;;;;15.77;7.93;;;410.10;2150.40;;;;;;4914997;29;20515;-83
2021/09/10 02:09:13;;;;;;;17.40;8.13;;;410.10;2150.40;;;;;;4893313;29;20087;-81
2021/09/10 02:11:38;;;;;;;19.75;8.77;;;410.00;2150.40;;;;;;4908765;29;20515;-80
2021/09/10 02:14:04;;;;;;;17.58;7.38;;;410.00;2150.40;;;;;;4908805;29;20025;-84
2021/09/10 02:16:31;;;;;;;20.25;8.38;;;409.90;2176.00;;;;;;4908263;29;20103;-83
2021/09/10 02:18:57;;;;;;;16.58;7.85;;;410.20;2124.80;;;;;;4890853;29;20032;-83
2021/09/10 02:21:23;;;;;;;15.55;6.95;;;410.10;2124.80;;;;;;4893563;29;20029;-84
2021/09/10 02:23:49;;;;;;;16.30;8.63;;;410.10;2150.40;;;;;;4908041;29;20111;-79
2021/09/10 02:26:15;;;;;;;19.77;7.90;;;410.00;2150.40;;;;;;4893282;29;20111;-83
2021/09/10 02:28:40;;;;;;;13.88;7.00;;;410.00;2150.40;;;;;;4909547;29;20031;-79
2021/09/10 02:31:06;;;;;;;21.70;7.78;;;410.00;2150.40;;;;;;4894504;29;20444;-83
2021/09/10 02:33:32;;;;;;;16.42;7.30;;;410.10;2150.40;;;;;;4907409;29;20035;-81
2021/09/10 02:35:58;;;;;;;21.25;8.07;;;410.20;2124.80;;;;;;4907684;29;20017;-82
2021/09/10 02:38:25;;;;;;;23.25;8.73;;;410.30;2124.80;;;;;;4926771;29;20015;-83
2021/09/10 02:40:51;;;;;;;13.40;7.10;;;410.20;2124.80;;;;;;4909975;29;20483;-77
2021/09/10 02:43:18;;;;;;;11.90;7.13;;;410.30;2124.80;;;;;;4906836;29;20025;-83
2021/09/10 02:45:44;;;;;;;20.40;6.28;;;410.20;2124.80;;;;;;4907842;29;20483;-80
2021/09/10 02:48:09;;;;;;;12.52;5.82;;;410.10;2150.40;;;;;;4908073;29;20407;-82
2021/09/10 02:50:36;;;;;;;12.35;6.32;;;410.00;2150.40;;;;;;4911964;29;20028;-82
2021/09/10 02:53:01;;;;;;;11.50;6.70;;;410.00;2150.40;;;;;;4908199;29;20035;-79
2021/09/10 02:55:27;;;;;;;14.38;6.25;;;410.20;2124.80;;;;;;4907890;29;20016;-83
2021/09/10 02:57:53;;;;;;;11.15;5.22;;;410.00;2150.40;;;;;;4912283;29;20028;-83
2021/09/10 03:00:19;;;;;;;14.35;6.38;;;409.90;2150.40;;;;;;4934830;29;20083;-80
2021/09/10 03:02:45;;;;;;;12.00;5.50;;;409.90;2176.00;;;;;;4910335;29;20083;-77
2021/09/10 03:05:11;;;;;;;10.48;5.53;;;409.90;2201.60;;;;;;4908501;29;20487;-83
2021/09/10 03:07:37;;;;;;;9.65;4.97;;;410.00;2176.00;;;;;;4905855;29;20399;-82
2021/09/10 03:10:04;;;;;;;12.68;5.57;;;410.00;2176.00;;;;;;4907178;29;20035;-79
2021/09/10 03:12:30;;;;;;;19.30;5.47;;;410.20;2176.00;;;;;;4907393;29;20037;-78
2021/09/10 03:14:56;;;;;;;9.88;4.95;;;410.30;2150.40;;;;;;4933502;29;20038;-80
2021/09/10 03:17:22;;;;;;;18.90;6.82;;;410.20;2176.00;;;;;;4916067;29;20020;-78
2021/09/10 03:19:48;;;;;;;14.98;5.90;;;410.10;2176.00;;;;;;4914515;29;20068;-82
2021/09/10 03:22:13;;;;;;;11.57;5.22;;;410.00;2201.60;;;;;;4904404;29;20083;-78
2021/09/10 03:24:39;;;;;;;11.27;5.50;;;409.70;2227.20;;;;;;4908533;29;20111;-83
2021/09/10 03:27:05;;;;;;;8.20;5.43;;;409.70;2252.80;;;;;;4889312;29;20056;-80
2021/09/10 03:29:31;;;;;;;14.32;5.43;;;409.60;2252.80;;;;;;4908480;29;20095;-79
2021/09/10 03:31:57;;;;;;;10.70;5.93;;;384.90;2252.80;;;;;;4907659;29;20115;-79
2021/09/10 03:34:23;;;;;;;14.05;5.68;;;384.60;2252.80;;;;;;4915269;29;20055;-81
2021/09/10 03:36:49;;;;;;;15.00;6.53;;;384.60;2278.40;;;;;;4897889;29;20543;-85
2021/09/10 03:39:15;;;;;;;12.23;6.35;;;384.60;2278.40;;;;;;4899771;29;20131;-80
2021/09/10 03:41:41;;;;;;;9.32;5.25;;;384.40;2304.00;;;;;;4889036;29;20021;-83
2021/09/10 03:44:06;;;;;;;19.30;6.22;;;384.30;2304.00;;;;;;4897525;29;20091;-76
2021/09/10 03:46:32;;;;;;;11.23;5.60;;;384.20;2329.60;;;;;;4925271;29;20024;-76
2021/09/10 03:48:58;;;;;;;14.52;5.65;;;384.20;2304.00;;;;;;4907307;29;20033;-82
2021/09/10 03:51:24;;;;;;;9.57;5.65;;;384.20;2329.60;;;;;;4890368;29;20586;-79
2021/09/10 03:53:49;;;;;;;12.18;5.72;;;384.10;2329.60;;;;;;4906410;29;20036;-79
2021/09/10 03:56:15;;;;;;;9.88;5.63;;;384.00;2329.60;;;;;;4893867;29;20036;-80
2021/09/10 03:58:41;;;;;;;9.88;5.65;;;384.10;2329.60;;;;;;4905995;29;20021;-82
2021/09/10 04:01:07;;;;;;;11.70;6.03;;;384.00;2329.60;;;;;;4908550;29;20398;-81
2021/09/10 04:03:33;;;;;;;12.40;6.10;;;384.00;2329.60;;;;;;4889472;29;20559;-83
2021/09/10 04:05:58;;;;;;;9.32;4.95;;;384.00;2329.60;;;;;;4891224;29;20032;-79
2021/09/10 04:08:24;;;;;;;16.63;6.18;;;359.30;2329.60;;;;;;4889276;29;20024;-83
2021/09/10 04:10:50;;;;;;;13.70;5.97;;;359.20;2329.60;;;;;;4913381;29;20039;-78
2021/09/10 04:13:15;;;;;;;12.23;5.25;;;384.00;2329.60;;;;;;4890766;29;20076;-76
2021/09/10 04:15:41;;;;;;;12.70;5.95;;;384.30;2329.60;;;;;;4905435;29;20068;-82
2021/09/10 04:18:07;;;;;;;22.77;10.35;;;384.10;2329.60;;;;;;4895559;29;20418;-83
2021/09/10 04:20:34;;;;;;;14.57;5.65;;;384.20;2329.60;;;;;;4922284;29;20459;-78
2021/09/10 04:23:00;;;;;;;10.32;5.60;;;384.10;2329.60;;;;;;4908041;29;20067;-81
2021/09/10 04:25:26;;;;;;;10.73;5.55;;;384.10;2329.60;;;;;;4913668;29;20395;-81
2021/09/10 04:27:52;;;;;;;10.45;5.18;;;384.00;2329.60;;;;;;4907362;29;20071;-77
2021/09/10 04:30:18;;;;;;;12.48;5.38;;;359.30;2329.60;;;;;;4890152;29;20044;-79
2021/09/10 04:32:44;;;;;;;11.35;5.35;;;359.30;2329.60;;;;;;4908244;29;20483;-83
2021/09/10 04:35:14;;;;;;;12.27;5.20;;;359.30;2329.60;;;;;;4889920;29;20028;-79
2021/09/10 04:37:40;;;;;;;13.07;5.50;;;359.30;2329.60;;;;;;4907475;29;20075;-83
2021/09/10 04:40:07;;;;;;;12.70;5.20;;;359.20;2329.60;;;;;;4905666;29;20261;-83
2021/09/10 04:42:34;;;;;;;17.88;6.18;;;384.00;2329.60;;;;;;4890338;29;20021;-83
2021/09/10 04:45:00;;;;;;;12.90;5.90;;;384.10;2329.60;;;;;;4908210;29;20036;-81
2021/09/10 04:47:26;;;;;;;14.00;4.45;;;384.00;2329.60;;;;;;4891934;29;20617;-83
2021/09/10 04:49:53;;;;;;;13.65;5.75;;;384.00;2329.60;;;;;;4905741;29;20056;-82
2021/09/10 04:52:19;;;;;;;9.30;4.72;;;384.00;2329.60;;;;;;4888898;29;20490;-83
2021/09/10 04:54:45;;;;;;;15.38;5.28;;;384.00;2329.60;;;;;;4906091;29;20020;-75
2021/09/10 04:57:10;;;;;;;10.10;5.07;;;384.00;2329.60;;;;;;4907996;29;20036;-82
2021/09/10 04:59:36;;;;;;;10.90;4.35;;;384.20;2329.60;;;;;;4906017;29;20107;-79
2021/09/10 05:02:02;;;;;;;10.02;5.07;;;384.30;2329.60;;;;;;4895272;29;20057;-81
2021/09/10 05:04:28;;;;;;;32.13;12.75;;;384.50;2329.60;;;;;;4911248;29;20028;-80
2021/09/10 05:06:54;;;;;;;10.30;4.78;;;384.40;2329.60;;;;;;4907616;29;20079;-74
2021/09/10 05:09:20;;;;;;;16.67;5.78;;;384.60;2329.60;;;;;;4915730;29;20462;-83
2021/09/10 05:11:46;;;;;;;9.23;4.57;;;384.60;2329.60;;;;;;4916099;29;20048;-81
2021/09/10 05:14:14;;;;;;;9.13;5.10;;;384.60;2329.60;;;;;;4915472;29;20040;-80
2021/09/10 05:16:40;;;;;;;8.50;4.28;;;384.90;2329.60;;;;;;4915696;29;20024;-81
2021/09/10 05:19:06;;;;;;;12.27;5.05;;;409.60;2355.20;;;;;;4915392;29;20053;-82
2021/09/10 05:21:31;;;;;;;10.85;5.65;;;409.70;2355.20;;;;;;4900259;29;20032;-80
2021/09/10 05:23:58;;;;;;;11.02;5.55;;;409.80;2355.20;;;;;;4934534;29;20028;-82
2021/09/10 05:26:24;;;;;;;11.57;4.97;;;409.90;2355.20;;;;;;4922096;29;20024;-85
2021/09/10 05:28:49;;;;;;;11.07;5.22;;;410.00;2355.20;;;;;;4921408;29;20030;-88
2021/09/10 05:31:15;;;;;;;11.02;5.07;;;410.20;2355.20;;;;;;4934967;29;20040;-85
2021/09/10 05:33:41;;;;;;;14.32;5.68;;;410.30;2355.20;;;;;;4934945;29;20016;-81
2021/09/10 05:36:06;;;;;;;8.45;4.55;;;410.50;2329.60;;;;;;4925820;29;20024;-86
2021/09/10 05:38:32;;;;;;;8.18;4.70;;;435.30;2304.00;;;;;;4929243;29;20023;-79
2021/09/10 05:40:58;;;;;;;7.88;4.35;;;435.40;2304.00;;;;;;4924851;29;20098;-82
2021/09/10 05:43:24;;;;;;;7.32;3.35;;;435.60;2278.40;;;;;;4925403;29;20031;-82
2021/09/10 05:45:50;;;;;;;13.10;3.97;;;436.00;2278.40;;;;;;4920540;29;20044;-77
2021/09/10 05:48:18;;;;;;;7.13;4.47;;;435.90;2278.40;;;;;;4938088;29;20115;-74
2021/09/10 05:50:46;;;;;;;8.35;4.28;;;436.00;2252.80;;;;;;4920625;29;20067;-81
2021/09/10 05:53:11;;;;;;;9.77;3.85;;;436.10;2252.80;;;;;;4938046;29;20031;-82
2021/09/10 05:55:37;;;;;;;8.20;3.72;;;460.80;2227.20;;;;;;4924336;29;20024;-83
2021/09/10 05:58:03;;;;;;;10.73;4.00;;;460.90;2227.20;;;;;;4937711;29;20023;-80
2021/09/10 06:00:29;;;;;;;14.55;4.50;;;461.10;2201.60;;;;;;4920443;29;20043;-79
2021/09/10 06:02:54;;;;;;;21.27;5.45;;;461.30;2176.00;;;;;;4931845;29;20055;-85
2021/09/10 06:05:20;;;;;;;16.35;4.30;;;461.50;2201.60;;;;;;4913719;29;20171;-82
2021/09/10 06:07:46;;;;;;;14.40;4.22;;;461.50;2124.80;;;;;;4920753;29;20024;-88
2021/09/10 06:10:13;;;;;;;15.98;3.90;;;461.70;2150.40;;;;;;4937779;29;20039;-80
2021/09/10 06:12:41;;;;;;;12.80;4.70;;;486.40;2099.20;;;;;;4937178;29;20071;-75
2021/09/10 06:15:08;;;;;;;13.27;4.07;;;;;;;;;;4937224;29;20027;-82
2021/09/10 06:17:33;;;;;;;15.35;4.13;;;486.50;2099.20;;;;;;4937264;29;20132;-80
2021/09/10 06:19:59;;;;;;;20.50;4.70;;;486.70;2099.20;;;;;;4924105;29;20095;-76
2021/09/10 06:22:27;;;;;;;13.73;5.22;;;486.90;2073.60;;;;;;4937732;29;20054;-79
2021/09/10 06:24:53;;;;;;;20.33;5.13;;;487.00;2048.00;;;;;;4937333;29;20106;-86
2021/09/10 06:27:19;;;;;;;13.32;4.90;;;487.10;2048.00;;;;;;4937920;29;20061;-87
2021/09/10 06:29:44;;;;;;;11.02;4.53;;;487.20;2022.40;;;;;;4937628;29;20470;-83
2021/09/10 06:32:10;;;;;;;13.30;4.18;;;487.30;1996.80;;;;;;4937110;29;20046;-81
2021/09/10 06:34:36;;;;;;;13.93;4.32;;;512.10;1971.20;;;;;;4937220;29;20106;-84
2021/09/10 06:37:02;;;;;;;12.52;3.70;;;512.30;1971.20;;;;;;4934131;29;20027;-78
2021/09/10 06:39:28;;;;;;;10.95;4.32;;;512.30;1894.40;;;;;;4918033;29;20036;-81
2021/09/10 06:41:57;;;;;;;8.32;3.97;;;512.50;1894.40;;;;;;4932341;29;20031;-75
2021/09/10 06:44:23;;;;;;;7.80;4.20;;;512.70;1868.80;;;;;;4929423;29;20111;-81
2021/09/10 06:46:48;;;;;;;13.32;4.35;;;512.80;1868.80;;;;;;4931025;29;20457;-74
2021/09/10 06:49:14;;;;;;;8.77;3.72;;;512.90;1843.20;;;;;;4936518;29;20386;-75
2021/09/10 06:51:40;;;;;;;17.35;4.28;;;537.60;1843.20;;;;;;4924482;29;20844;-78
2021/09/10 06:54:06;;;;;;;9.27;3.70;;;537.80;1843.20;;;;;;4934106;29;20023;-77
2021/09/10 06:56:31;;;;;;;9.63;3.90;;;538.00;1817.60;;;;;;4936356;29;20028;-79
2021/09/10 06:58:57;;;;;;;12.32;3.88;;;538.10;1817.60;;;;;;4936273;29;20039;-77
2021/09/10 07:01:23;;;;;;;8.50;3.65;;;538.20;1817.60;;;;;;4935827;29;20032;-76
2021/09/10 07:03:49;;;;;;;10.88;4.35;;;538.40;1817.60;;;;;;4919273;29;20027;-79
2021/09/10 07:06:14;;;;;;;8.40;3.35;;;563.20;1843.20;;;;;;4935895;29;20090;-80
2021/09/10 07:08:40;;;;;;;13.70;3.75;;;563.30;1817.60;;;;;;4936274;29;20099;-75
2021/09/10 07:11:06;;;;;;;6.05;3.35;;;563.40;1766.40;;;;;;4935772;29;20047;-75
2021/09/10 07:13:32;;;;;;;10.05;3.30;;;563.40;1740.80;;;;;;4936025;29;20024;-76
2021/09/10 07:15:57;;;;;;;9.45;4.72;;;563.60;1740.80;;;;;;4935815;29;20020;-75
2021/09/10 07:18:23;;;;;;;8.73;4.32;;;563.60;1715.20;;;;;;4932397;29;20098;-79
2021/09/10 07:20:49;;;;;;;7.93;4.10;;;563.80;1715.20;;;;;;4926235;29;20034;-77
2021/09/10 07:23:15;;;;;;;12.18;4.30;;;563.90;1664.00;;;;;;4934046;29;20027;-78
2021/09/10 07:25:41;;;;;;;15.60;3.97;;;564.00;1715.20;;;;;;4924035;29;20035;-78
2021/09/10 07:28:07;;;;;;;8.20;3.85;;;564.10;1689.60;;;;;;4936020;29;20493;-83
2021/09/10 07:30:34;;;;;;;10.68;3.55;;;588.90;1664.00;;;;;;4936250;29;20077;-78
2021/09/10 07:33:00;;;;;;;12.75;4.10;;;589.00;1638.40;;;;;;4924311;29;20111;-82
2021/09/10 07:35:27;;;;;;;18.20;4.15;;;589.10;1612.80;;;;;;4934077;29;20099;-79
2021/09/10 07:37:53;;;;;;;11.38;3.78;;;589.20;1638.40;;;;;;4935497;29;20083;-74
2021/09/10 07:40:19;;;;;;;11.35;3.95;;;589.20;1638.40;;;;;;4935632;29;20028;-75
2021/09/10 07:42:45;;;;;;;15.45;4.65;;;589.40;1587.20;;;;;;4927798;29;20467;-82
2021/09/10 07:45:12;;;;;;;16.65;4.15;;;589.40;1587.20;;;;;;4929595;29;20071;-74
2021/09/10 07:47:39;;;;;;;12.07;3.70;;;589.50;1561.60;;;;;;4935097;29;20024;-76
2021/09/10 07:50:05;;;;;;;11.50;4.50;;;589.60;1612.80;;;;;;4935118;29;20028;-78
2021/09/10 07:52:31;;;;;;;12.45;3.80;;;614.40;1561.60;;;;;;4935325;29;20027;-81
2021/09/10 07:54:56;;;;;;;13.80;4.03;;;589.50;1510.40;;;;;;4925075;29;20020;-76
2021/09/10 07:57:23;;;;;;;10.77;3.42;;;614.50;1536.00;;;;;;4929434;29;20035;-74
2021/09/10 07:59:55;;;;;;;21.80;4.32;;;614.50;1510.40;;;;;;4924554;29;20020;-79
2021/09/10 08:02:21;;;;;;;9.88;3.60;;;614.60;1536.00;;;;;;4934911;29;20043;-76
2021/09/10 08:04:47;;;;;;;17.33;4.65;;;614.70;1484.80;;;;;;4934587;29;20094;-77
2021/09/10 08:07:12;;;;;;;16.92;4.15;;;614.70;1484.80;;;;;;4934990;29;20474;-79
2021/09/10 08:09:38;;;;;;;13.70;3.58;;;614.80;1433.60;;;;;;4934988;29;20155;-79
2021/09/10 08:12:04;;;;;;;9.80;3.72;;;614.90;1433.60;;;;;;4934807;29;20051;-76
2021/09/10 08:14:30;;;;;;;10.40;4.00;;;614.90;1459.20;;;;;;4935075;29;20030;-78
2021/09/10 08:16:55;;;;;;;11.45;4.00;;;615.10;1433.60;;;;;;4934810;29;20031;-78
2021/09/10 08:19:21;;;;;;;9.82;3.95;;;615.10;1382.40;;;;;;4923826;29;20502;-75
2021/09/10 08:21:47;;;;;;;10.30;3.08;;;615.20;1408.00;;;;;;4915374;29;20031;-78
2021/09/10 08:24:13;;;;;;;13.00;3.72;;;615.20;1382.40;;;;;;4934922;29;20106;-79
2021/09/10 08:26:39;;;;;;;6.95;3.60;;;615.30;1382.40;;;;;;4934638;29;20028;-78
2021/09/10 08:29:04;;;;;;;10.32;3.97;;;640.00;1331.20;;;;;;4934778;29;20450;-78
2021/09/10 08:31:30;;;;;;;9.45;3.38;;;640.00;1356.80;;;;;;4921487;29;20447;-76
2021/09/10 08:33:56;;;;;;;11.95;3.78;;;640.10;1331.20;;;;;;4934472;29;20466;-78
2021/09/10 08:36:23;;;;;;;11.32;3.75;;;640.10;1331.20;;;;;;4934720;29;20462;-79
2021/09/10 08:38:48;;;;;;;16.02;4.03;;;640.20;1331.20;;;;;;4934611;29;20023;-76
2021/09/10 08:41:18;;;;;;;13.38;4.47;;;640.40;1254.40;;;;;;4934779;29;20078;-75
2021/09/10 08:43:48;;;;;;;17.30;4.35;;;640.50;1254.40;;;;;;4917307;29;20486;-76
2021/09/10 08:46:14;;;;;;;8.30;3.05;;;640.60;1228.80;;;;;;4934607;29;20031;-77
2021/09/10 08:48:44;;;;;;;15.40;4.00;;;640.50;1228.80;;;;;;4933313;29;20031;-78
2021/09/10 08:51:10;;;;;;;10.45;3.38;;;640.40;1228.80;;;;;;4922902;29;20028;-79
2021/09/10 08:53:36;;;;;;;25.98;4.75;;;640.50;1228.80;;;;;;4934665;29;20095;-77
2021/09/10 08:56:02;;;;;;;7.28;2.95;;;640.60;1228.80;;;;;;4915892;29;20145;-79
2021/09/10 08:58:28;;;;;;;7.95;3.20;;;640.60;1228.80;;;;;;4927006;29;20143;-81
2021/09/10 09:00:59;;;;;;;10.90;3.65;;;640.80;1228.80;;;;;;4934367;29;20526;-75
2021/09/10 09:03:28;;;;;;;12.30;4.05;;;640.90;1228.80;;;;;;4934942;29;20032;-77
2021/09/10 09:05:54;;;;;;;11.20;3.83;;;640.90;1228.80;;;;;;4934147;29;20110;-76
2021/09/10 09:08:20;;;;;;;16.70;4.57;;;640.90;1254.40;;;;;;4934674;29;20039;-78
2021/09/10 09:10:51;;;;;;;6.85;3.78;;;665.60;1254.40;;;;;;4933944;29;20036;-80
2021/09/10 09:13:18;;;;;;;9.48;3.50;;;665.60;1228.80;;;;;;4927258;29;20024;-77
2021/09/10 09:15:44;;;;;;;10.77;4.13;;;665.90;1254.40;;;;;;4929985;29;20036;-78
2021/09/10 09:18:10;;;;;;;12.20;4.13;;;665.80;1228.80;;;;;;4935993;29;20024;-77
2021/09/10 09:20:36;;;;;;;12.07;3.80;;;665.90;1228.80;;;;;;4926571;29;20102;-78
2021/09/10 09:23:12;;;;;;;14.15;3.92;;;665.90;1228.80;;;;;;4937958;29;20035;-77
2021/09/10 09:25:45;;;;;;;9.35;3.45;;;666.10;1254.40;;;;;;4914009;29;20032;-78
2021/09/10 09:28:28;;;;;;;9.45;3.42;;;666.20;1203.20;;;;;;4937592;29;20016;-78
2021/09/10 09:30:59;;;;;;;13.20;3.78;;;666.20;1228.80;;;;;;4919670;29;20390;-79
2021/09/10 09:33:31;;;;;;;11.77;3.92;;;666.10;1228.80;;;;;;4930336;29;20023;-76
2021/09/10 09:35:58;;;;;;;7.32;3.33;;;666.30;1280.00;;;;;;4901663;29;20056;-75
2021/09/10 09:38:35;;;;;;;11.35;3.38;;;666.20;1228.80;;;;;;4932270;29;20023;-79
2021/09/10 09:41:16;;;;;;;15.32;4.35;;;666.40;1254.40;;;;;;4918717;29;20020;-78
2021/09/10 09:43:47;;;;;;;6.05;3.00;;;691.20;1228.80;;;;;;4931761;29;20020;-80
2021/09/10 09:46:18;;;;;;;9.27;3.25;;;691.20;1203.20;;;;;;4927187;29;20035;-79
2021/09/10 09:48:49;;;;;;;11.85;3.28;;;691.20;1177.60;;;;;;4938155;29;20036;-79
2021/09/10 09:51:16;;;;;;;14.43;3.80;;;691.20;1203.20;;;;;;4937336;29;20030;-79
2021/09/10 09:53:44;;;;;;;12.23;3.63;;;691.30;1203.20;;;;;;4920341;29;20478;-81
2021/09/10 09:56:10;;;;;;;6.85;3.35;;;691.40;1177.60;;;;;;4937494;29;20038;-81
2021/09/10 09:58:38;;;;;;;9.10;3.97;;;691.70;1203.20;;;;;;4937588;29;20028;-80
2021/09/10 10:01:05;;;;;;;8.13;3.47;;;691.80;1228.80;;;;;;4932288;29;20103;-78
2021/09/10 10:03:31;;;;;;;6.28;2.85;;;691.80;1203.20;;;;;;4901527;29;20031;-80
2021/09/10 10:06:10;;;;;;;14.90;3.85;;;691.90;1177.60;;;;;;4934372;29;20036;-79
2021/09/10 10:08:57;;;;;;;9.10;3.90;;;691.90;1177.60;;;;;;4926731;29;20028;-77
2021/09/10 10:11:25;;;;;;;14.23;3.55;;;716.80;1203.20;;;;;;4907220;29;20453;-78
2021/09/10 10:13:59;;;;;;;6.30;3.78;;;716.80;1228.80;;;;;;4937098;29;20024;-80
2021/09/10 10:16:45;;;;;;;11.95;3.50;;;716.90;1152.00;;;;;;4937181;29;20051;-80
2021/09/10 10:19:20;;;;;;;8.80;3.35;;;717.20;1177.60;;;;;;4927334;29;20038;-77
2021/09/10 10:21:56;;;;;;;11.17;3.07;;;717.50;1126.40;;;;;;4934158;29;20537;-76
2021/09/10 10:24:51;;;;;;;18.27;3.63;;;717.70;1152.00;;;;;;4936681;29;20660;-75
2021/09/10 10:27:39;;;;;;;13.75;3.67;;;717.50;1126.40;;;;;;4911514;29;20030;-76
2021/09/10 10:30:19;;;;;;;13.02;3.47;;;717.70;1152.00;;;;;;4936694;29;20139;-77
2021/09/10 10:32:49;;;;;;;9.13;3.33;;;742.40;1126.40;;;;;;4919281;29;20035;-76
2021/09/10 10:35:43;;;;;;;10.07;3.35;;;717.50;1075.20;;;;;;4934560;29;20099;-75
2021/09/10 10:38:12;;;;;;;10.50;2.85;;;717.40;1100.80;;;;;;4936593;29;20086;-77
2021/09/10 10:40:48;;;;;;;7.38;3.25;;;717.40;1126.40;;;;;;4936146;29;20024;-77
2021/09/10 10:43:22;;;;;;;11.60;3.17;;;742.40;1126.40;;;;;;4924843;29;20103;-77
2021/09/10 10:45:48;;;;;;;6.57;3.42;;;742.70;1100.80;;;;;;4935730;29;20032;-76
2021/09/10 10:48:32;;;;;;;10.57;3.38;;;742.50;1126.40;;;;;;4936182;29;20514;-76
2021/09/10 10:51:04;;;;;;;7.72;3.28;;;742.50;1100.80;;;;;;4936009;29;20479;-77
2021/09/10 10:53:45;;;;;;;11.55;3.85;;;742.50;1126.40;;;;;;4919387;29;20505;-81
2021/09/10 10:56:32;;;;;;;13.65;3.40;;;742.90;1100.80;;;;;;4923792;29;20031;-78
2021/09/10 10:59:16;;;;;;;10.40;3.13;;;743.30;1100.80;;;;;;4935955;29;20031;-77
2021/09/10 11:02:25;;;;;;;10.27;3.80;;;743.30;1024.00;;;;;;4936231;29;20023;-77
2021/09/10 11:04:57;;;;;;;9.30;3.47;;;743.00;1075.20;;;;;;4913792;29;20123;-78
2021/09/10 11:07:25;;;;;;;12.38;4.03;;;743.10;1075.20;;;;;;4934851;29;20032;-78
2021/09/10 11:09:59;;;;;;;12.85;3.60;;;743.30;1075.20;;;;;;4916558;29;20026;-77
2021/09/10 11:12:25;;;;;;;7.18;3.42;;;743.30;1075.20;;;;;;4930605;29;20044;-79
2021/09/10 11:14:51;;;;;;;7.72;3.13;;;768.10;1075.20;;;;;;4935846;29;20032;-78
2021/09/10 11:17:21;;;;;;;8.65;3.50;;;768.40;1049.60;;;;;;4936112;29;20082;-78
2021/09/10 11:19:48;;;;;;;18.80;4.00;;;768.80;998.40;;;;;;4935788;29;20479;-79
2021/09/10 11:22:15;;;;;;;16.02;3.78;;;768.30;998.40;;;;;;4936006;29;20019;-79
2021/09/10 11:24:42;;;;;;;12.02;3.47;;;768.40;998.40;;;;;;4935640;29;20044;-79
2021/09/10 11:27:27;;;;;;;7.50;3.28;;;768.60;1024.00;;;;;;4935681;29;20063;-80
2021/09/10 11:29:54;;;;;;;6.63;3.42;;;768.10;1024.00;;;;;;4935856;29;20075;-79
2021/09/10 11:32:23;;;;;;;11.77;3.53;;;743.30;1024.00;;;;;;4935509;29;20042;-80
2021/09/10 11:34:50;;;;;;;16.90;3.65;;;768.20;1024.00;;;;;;4935756;29;20031;-80
2021/09/10 11:37:26;;;;;;;8.63;3.55;;;768.50;1024.00;;;;;;4935141;29;20051;-79
2021/09/10 11:39:52;;;;;;;13.75;5.57;;;768.40;998.40;;;;;;4923342;29;20043;-80
2021/09/10 11:42:38;;;;;;;13.13;3.63;;;768.60;998.40;;;;;;4934089;29;20019;-78
2021/09/10 11:45:10;;;;;;;12.10;4.05;;;768.50;972.80;;;;;;4935434;29;20031;-79
2021/09/10 11:47:37;;;;;;;9.82;3.22;;;768.70;1024.00;;;;;;4909169;29;20023;-79
2021/09/10 11:50:08;;;;;;;14.70;3.88;;;768.60;1024.00;;;;;;4935451;29;20094;-79
2021/09/10 11:52:37;;;;;;;12.73;4.47;;;768.40;998.40;;;;;;4934888;29;20024;-79
2021/09/10 11:55:12;;;;;;;7.85;3.50;;;768.60;1024.00;;;;;;4935488;29;20106;-79
2021/09/10 11:57:41;;;;;;;8.70;3.42;;;768.50;998.40;;;;;;4934919;29;20102;-80
2021/09/10 12:00:09;;;;;;;14.80;3.90;;;768.60;972.80;;;;;;4935284;29;20052;-80
2021/09/10 12:02:35;;;;;;;9.52;3.13;;;768.60;998.40;;;;;;4935021;29;20103;-79
2021/09/10 12:05:04;;;;;;;14.43;3.88;;;768.90;998.40;;;;;;4917883;29;20122;-79
2021/09/10 12:07:31;;;;;;;10.27;3.40;;;793.60;998.40;;;;;;4935028;29;20032;-79
2021/09/10 12:09:58;;;;;;;12.27;4.05;;;793.70;1024.00;;;;;;4934942;29;20079;-79
2021/09/10 12:12:28;;;;;;;9.32;3.50;;;793.70;972.80;;;;;;4934813;29;20050;-77
2021/09/10 12:15:04;;;;;;;10.00;4.35;;;793.80;998.40;;;;;;4928238;29;20050;-79